sensor_id;sensor_type;location;lat;lon;timestamp;temperature;humidity
58153;DHT22;43967;51.634;5.566;2022-07-15T00:00:51;24.30;53.60
58153;DHT22;43967;51.634;5.566;2022-07-15T00:05:52;24.30;53.70
58153;DHT22;43967;51.634;5.566;2022-07-15T00:10:53;24.30;53.60
58153;DHT22;43967;51.634;5.566;2022-07-15T00:15:54;24.30;53.70
58153;DHT22;43967;51.634;5.566;2022-07-15T00:20:55;24.30;53.70
58153;DHT22;43967;51.634;5.566;2022-07-15T00:25:56;24.20;53.70
58153;DHT22;43967;51.634;5.566;2022-07-15T00:30:57;24.30;53.80
58153;DHT22;43967;51.634;5.566;2022-07-15T00:35:58;24.20;53.80
58153;DHT22;43967;51.634;5.566;2022-07-15T00:40:59;24.20;53.80
58153;DHT22;43967;51.634;5.566;2022-07-15T00:46:00;24.20;53.80
58153;DHT22;43967;51.634;5.566;2022-07-15T00:51:01;24.20;53.90
58153;DHT22;43967;51.634;5.566;2022-07-15T00:56:03;24.20;53.90
58153;DHT22;43967;51.634;5.566;2022-07-15T01:01:05;24.20;53.90
58153;DHT22;43967;51.634;5.566;2022-07-15T01:06:07;24.20;53.90
58153;DHT22;43967;51.634;5.566;2022-07-15T01:11:09;24.20;53.90
58153;DHT22;43967;51.634;5.566;2022-07-15T01:16:10;24.20;53.90
58153;DHT22;43967;51.634;5.566;2022-07-15T01:21:11;24.20;53.90
58153;DHT22;43967;51.634;5.566;2022-07-15T01:26:13;24.20;54.00
58153;DHT22;43967;51.634;5.566;2022-07-15T01:31:16;24.20;54.00
58153;DHT22;43967;51.634;5.566;2022-07-15T01:36:18;24.20;54.00
58153;DHT22;43967;51.634;5.566;2022-07-15T01:41:27;24.20;54.00
58153;DHT22;43967;51.634;5.566;2022-07-15T01:46:28;24.10;54.00
58153;DHT22;43967;51.634;5.566;2022-07-15T01:51:30;24.20;54.00
58153;DHT22;43967;51.634;5.566;2022-07-15T01:56:31;24.10;54.00
58153;DHT22;43967;51.634;5.566;2022-07-15T02:01:33;24.10;54.10
58153;DHT22;43967;51.634;5.566;2022-07-15T02:06:40;24.10;54.10
58153;DHT22;43967;51.634;5.566;2022-07-15T02:11:42;24.10;54.10
58153;DHT22;43967;51.634;5.566;2022-07-15T02:16:44;24.10;54.10
58153;DHT22;43967;51.634;5.566;2022-07-15T02:21:51;24.10;54.20
58153;DHT22;43967;51.634;5.566;2022-07-15T02:26:53;24.10;54.20
58153;DHT22;43967;51.634;5.566;2022-07-15T02:31:54;24.10;54.20
58153;DHT22;43967;51.634;5.566;2022-07-15T02:36:56;24.10;54.20
58153;DHT22;43967;51.634;5.566;2022-07-15T02:41:57;24.10;54.20
58153;DHT22;43967;51.634;5.566;2022-07-15T02:46:59;24.10;54.30
58153;DHT22;43967;51.634;5.566;2022-07-15T02:52:05;24.10;54.30
58153;DHT22;43967;51.634;5.566;2022-07-15T02:57:11;24.10;54.30
58153;DHT22;43967;51.634;5.566;2022-07-15T03:02:13;24.00;54.30
58153;DHT22;43967;51.634;5.566;2022-07-15T03:07:14;24.00;54.40
58153;DHT22;43967;51.634;5.566;2022-07-15T03:12:15;24.00;54.30
58153;DHT22;43967;51.634;5.566;2022-07-15T03:17:17;24.00;54.40
58153;DHT22;43967;51.634;5.566;2022-07-15T03:22:18;24.00;54.40
58153;DHT22;43967;51.634;5.566;2022-07-15T03:27:19;24.00;54.30
58153;DHT22;43967;51.634;5.566;2022-07-15T03:32:21;24.00;54.40
58153;DHT22;43967;51.634;5.566;2022-07-15T03:37:24;24.00;54.40
58153;DHT22;43967;51.634;5.566;2022-07-15T03:42:25;24.00;54.50
58153;DHT22;43967;51.634;5.566;2022-07-15T03:47:27;24.00;54.50
58153;DHT22;43967;51.634;5.566;2022-07-15T03:52:28;24.00;54.50
58153;DHT22;43967;51.634;5.566;2022-07-15T03:57:29;24.00;54.40
58153;DHT22;43967;51.634;5.566;2022-07-15T04:02:30;23.90;54.40
58153;DHT22;43967;51.634;5.566;2022-07-15T04:07:33;24.00;54.50
58153;DHT22;43967;51.634;5.566;2022-07-15T04:12:34;24.00;54.50
58153;DHT22;43967;51.634;5.566;2022-07-15T04:17:35;24.00;54.50
58153;DHT22;43967;51.634;5.566;2022-07-15T04:22:40;24.00;54.70
58153;DHT22;43967;51.634;5.566;2022-07-15T04:27:43;23.90;54.60
58153;DHT22;43967;51.634;5.566;2022-07-15T04:32:46;23.90;54.60
58153;DHT22;43967;51.634;5.566;2022-07-15T04:37:47;23.90;54.70
58153;DHT22;43967;51.634;5.566;2022-07-15T04:42:49;23.90;55.40
58153;DHT22;43967;51.634;5.566;2022-07-15T04:47:53;23.90;54.70
58153;DHT22;43967;51.634;5.566;2022-07-15T04:53:02;23.90;54.70
58153;DHT22;43967;51.634;5.566;2022-07-15T04:58:03;23.90;54.80
58153;DHT22;43967;51.634;5.566;2022-07-15T05:03:05;23.90;54.70
58153;DHT22;43967;51.634;5.566;2022-07-15T05:08:07;23.00;53.30
58153;DHT22;43967;51.634;5.566;2022-07-15T05:13:13;22.30;54.20
58153;DHT22;43967;51.634;5.566;2022-07-15T05:18:14;22.00;55.10
58153;DHT22;43967;51.634;5.566;2022-07-15T05:23:16;21.90;55.30
58153;DHT22;43967;51.634;5.566;2022-07-15T05:28:21;21.90;55.40
58153;DHT22;43967;51.634;5.566;2022-07-15T05:33:24;21.80;55.80
58153;DHT22;43967;51.634;5.566;2022-07-15T05:38:26;21.60;56.50
58153;DHT22;43967;51.634;5.566;2022-07-15T05:43:28;21.50;57.80
58153;DHT22;43967;51.634;5.566;2022-07-15T05:48:29;21.50;57.40
58153;DHT22;43967;51.634;5.566;2022-07-15T05:53:32;21.60;57.40
58153;DHT22;43967;51.634;5.566;2022-07-15T05:58:34;21.60;57.00
58153;DHT22;43967;51.634;5.566;2022-07-15T06:03:36;21.80;56.20
58153;DHT22;43967;51.634;5.566;2022-07-15T06:08:38;21.70;56.40
58153;DHT22;43967;51.634;5.566;2022-07-15T06:13:40;21.80;56.30
58153;DHT22;43967;51.634;5.566;2022-07-15T06:18:41;21.80;55.70
58153;DHT22;43967;51.634;5.566;2022-07-15T06:23:43;21.80;55.20
58153;DHT22;43967;51.634;5.566;2022-07-15T06:28:45;21.80;55.00
58153;DHT22;43967;51.634;5.566;2022-07-15T06:33:46;21.80;55.10
58153;DHT22;43967;51.634;5.566;2022-07-15T06:38:50;21.90;54.70
58153;DHT22;43967;51.634;5.566;2022-07-15T06:43:51;22.10;54.20
58153;DHT22;43967;51.634;5.566;2022-07-15T06:49:10;21.90;54.40
58153;DHT22;43967;51.634;5.566;2022-07-15T06:54:11;22.10;54.50
58153;DHT22;43967;51.634;5.566;2022-07-15T06:59:13;22.20;54.10
58153;DHT22;43967;51.634;5.566;2022-07-15T07:04:14;22.30;53.70
58153;DHT22;43967;51.634;5.566;2022-07-15T07:09:16;22.30;53.50
58153;DHT22;43967;51.634;5.566;2022-07-15T07:14:17;22.30;53.40
58153;DHT22;43967;51.634;5.566;2022-07-15T07:19:18;22.40;53.40
58153;DHT22;43967;51.634;5.566;2022-07-15T07:24:19;22.40;53.70
58153;DHT22;43967;51.634;5.566;2022-07-15T07:29:20;22.50;53.70
58153;DHT22;43967;51.634;5.566;2022-07-15T07:34:21;22.50;52.90
58153;DHT22;43967;51.634;5.566;2022-07-15T07:39:22;22.50;53.00
58153;DHT22;43967;51.634;5.566;2022-07-15T07:44:23;22.50;52.30
58153;DHT22;43967;51.634;5.566;2022-07-15T07:49:24;22.50;52.10
58153;DHT22;43967;51.634;5.566;2022-07-15T07:54:25;22.50;52.20
58153;DHT22;43967;51.634;5.566;2022-07-15T07:59:26;22.50;51.60
58153;DHT22;43967;51.634;5.566;2022-07-15T08:04:27;22.50;51.20
58153;DHT22;43967;51.634;5.566;2022-07-15T08:09:28;22.60;50.90
58153;DHT22;43967;51.634;5.566;2022-07-15T08:14:29;22.60;51.00
58153;DHT22;43967;51.634;5.566;2022-07-15T08:19:31;22.60;50.40
58153;DHT22;43967;51.634;5.566;2022-07-15T08:24:32;22.70;50.30
58153;DHT22;43967;51.634;5.566;2022-07-15T08:29:33;22.80;50.00
58153;DHT22;43967;51.634;5.566;2022-07-15T08:34:34;22.80;50.00
58153;DHT22;43967;51.634;5.566;2022-07-15T08:39:36;22.90;49.70
58153;DHT22;43967;51.634;5.566;2022-07-15T08:49:56;23.00;49.70
58153;DHT22;43967;51.634;5.566;2022-07-15T08:54:58;23.10;49.90
58153;DHT22;43967;51.634;5.566;2022-07-15T08:59:59;23.10;50.00
58153;DHT22;43967;51.634;5.566;2022-07-15T09:10:20;23.10;49.20
58153;DHT22;43967;51.634;5.566;2022-07-15T09:15:35;23.10;49.50
58153;DHT22;43967;51.634;5.566;2022-07-15T09:20:37;23.10;49.00
58153;DHT22;43967;51.634;5.566;2022-07-15T09:25:39;23.10;48.80
58153;DHT22;43967;51.634;5.566;2022-07-15T09:30:43;23.20;48.90
58153;DHT22;43967;51.634;5.566;2022-07-15T09:35:44;23.30;48.60
58153;DHT22;43967;51.634;5.566;2022-07-15T09:40:48;23.40;66.10
58153;DHT22;43967;51.634;5.566;2022-07-15T09:46:00;23.70;72.30
58153;DHT22;43967;51.634;5.566;2022-07-15T09:51:01;23.70;60.30
58153;DHT22;43967;51.634;5.566;2022-07-15T09:56:02;23.80;67.90
58153;DHT22;43967;51.634;5.566;2022-07-15T10:01:10;23.60;48.00
58153;DHT22;43967;51.634;5.566;2022-07-15T10:06:14;23.60;47.90
58153;DHT22;43967;51.634;5.566;2022-07-15T10:11:15;23.70;47.40
58153;DHT22;43967;51.634;5.566;2022-07-15T10:38:29;23.60;47.30
58153;DHT22;43967;51.634;5.566;2022-07-15T10:43:37;23.80;47.20
58153;DHT22;43967;51.634;5.566;2022-07-15T10:48:39;23.70;46.80
58153;DHT22;43967;51.634;5.566;2022-07-15T10:53:47;23.50;46.50
58153;DHT22;43967;51.634;5.566;2022-07-15T10:59:19;23.70;47.00
58153;DHT22;43967;51.634;5.566;2022-07-15T11:04:22;23.70;47.30
58153;DHT22;43967;51.634;5.566;2022-07-15T11:09:46;23.70;46.60
58153;DHT22;43967;51.634;5.566;2022-07-15T11:15:00;23.80;47.40
58153;DHT22;43967;51.634;5.566;2022-07-15T11:20:08;23.90;46.80
58153;DHT22;43967;51.634;5.566;2022-07-15T11:25:39;24.10;45.90
58153;DHT22;43967;51.634;5.566;2022-07-15T11:30:49;24.20;45.60
58153;DHT22;43967;51.634;5.566;2022-07-15T11:35:57;24.30;45.80
58153;DHT22;43967;51.634;5.566;2022-07-15T11:41:01;24.30;45.70
58153;DHT22;43967;51.634;5.566;2022-07-15T11:46:06;24.40;45.40
58153;DHT22;43967;51.634;5.566;2022-07-15T11:51:30;24.30;44.90
58153;DHT22;43967;51.634;5.566;2022-07-15T11:56:31;24.30;44.50
58153;DHT22;43967;51.634;5.566;2022-07-15T12:01:32;24.30;44.80
58153;DHT22;43967;51.634;5.566;2022-07-15T12:06:33;24.40;45.00
58153;DHT22;43967;51.634;5.566;2022-07-15T12:11:36;24.40;44.80
58153;DHT22;43967;51.634;5.566;2022-07-15T12:16:47;24.40;44.30
58153;DHT22;43967;51.634;5.566;2022-07-15T12:21:59;24.40;44.70
58153;DHT22;43967;51.634;5.566;2022-07-15T12:27:00;24.50;44.60
58153;DHT22;43967;51.634;5.566;2022-07-15T12:32:07;24.50;44.80
58153;DHT22;43967;51.634;5.566;2022-07-15T12:37:09;24.40;44.10
58153;DHT22;43967;51.634;5.566;2022-07-15T12:42:10;24.40;44.70
58153;DHT22;43967;51.634;5.566;2022-07-15T12:47:15;24.50;44.50
58153;DHT22;43967;51.634;5.566;2022-07-15T12:57:35;24.40;44.70
58153;DHT22;43967;51.634;5.566;2022-07-15T13:03:11;24.50;45.70
58153;DHT22;43967;51.634;5.566;2022-07-15T13:08:19;24.60;46.10
58153;DHT22;43967;51.634;5.566;2022-07-15T13:13:27;24.60;46.20
58153;DHT22;43967;51.634;5.566;2022-07-15T13:18:29;24.70;46.40
58153;DHT22;43967;51.634;5.566;2022-07-15T13:23:33;24.70;46.50
58153;DHT22;43967;51.634;5.566;2022-07-15T13:28:34;24.70;46.60
58153;DHT22;43967;51.634;5.566;2022-07-15T13:33:35;24.80;46.80
58153;DHT22;43967;51.634;5.566;2022-07-15T13:38:36;24.80;46.80
58153;DHT22;43967;51.634;5.566;2022-07-15T13:43:38;24.80;46.90
58153;DHT22;43967;51.634;5.566;2022-07-15T13:48:39;24.80;47.10
58153;DHT22;43967;51.634;5.566;2022-07-15T13:53:40;24.80;47.20
58153;DHT22;43967;51.634;5.566;2022-07-15T13:58:41;24.80;47.20
58153;DHT22;43967;51.634;5.566;2022-07-15T14:03:42;24.90;47.40
58153;DHT22;43967;51.634;5.566;2022-07-15T14:08:43;24.90;47.40
58153;DHT22;43967;51.634;5.566;2022-07-15T14:13:44;24.90;47.50
58153;DHT22;43967;51.634;5.566;2022-07-15T14:18:45;24.90;47.60
58153;DHT22;43967;51.634;5.566;2022-07-15T14:23:46;24.90;47.70
58153;DHT22;43967;51.634;5.566;2022-07-15T14:28:48;24.90;47.90
58153;DHT22;43967;51.634;5.566;2022-07-15T14:33:49;24.90;47.90
58153;DHT22;43967;51.634;5.566;2022-07-15T14:38:50;24.90;48.00
58153;DHT22;43967;51.634;5.566;2022-07-15T14:43:51;24.90;48.10
58153;DHT22;43967;51.634;5.566;2022-07-15T14:48:52;25.00;49.00
58153;DHT22;43967;51.634;5.566;2022-07-15T14:53:53;25.00;48.20
58153;DHT22;43967;51.634;5.566;2022-07-15T14:58:54;25.00;48.40
58153;DHT22;43967;51.634;5.566;2022-07-15T15:03:55;25.00;48.50
58153;DHT22;43967;51.634;5.566;2022-07-15T15:08:56;25.00;48.60
58153;DHT22;43967;51.634;5.566;2022-07-15T15:13:58;25.10;48.70
58153;DHT22;43967;51.634;5.566;2022-07-15T15:18:59;25.10;48.80
58153;DHT22;43967;51.634;5.566;2022-07-15T15:24:00;25.10;48.80
58153;DHT22;43967;51.634;5.566;2022-07-15T15:29:01;25.10;48.80
58153;DHT22;43967;51.634;5.566;2022-07-15T15:34:02;25.10;48.80
58153;DHT22;43967;51.634;5.566;2022-07-15T15:39:03;25.10;48.80
58153;DHT22;43967;51.634;5.566;2022-07-15T15:44:04;25.10;48.90
58153;DHT22;43967;51.634;5.566;2022-07-15T15:49:05;25.10;48.90
58153;DHT22;43967;51.634;5.566;2022-07-15T15:54:06;25.10;49.00
58153;DHT22;43967;51.634;5.566;2022-07-15T15:59:08;25.10;49.00
58153;DHT22;43967;51.634;5.566;2022-07-15T16:04:09;25.10;49.00
58153;DHT22;43967;51.634;5.566;2022-07-15T16:09:10;25.10;49.00
58153;DHT22;43967;51.634;5.566;2022-07-15T16:14:11;25.10;49.10
58153;DHT22;43967;51.634;5.566;2022-07-15T16:19:12;25.10;49.10
58153;DHT22;43967;51.634;5.566;2022-07-15T16:24:14;25.10;49.20
58153;DHT22;43967;51.634;5.566;2022-07-15T16:29:15;25.10;49.30
58153;DHT22;43967;51.634;5.566;2022-07-15T16:34:16;25.20;49.40
58153;DHT22;43967;51.634;5.566;2022-07-15T16:39:17;25.20;49.50
58153;DHT22;43967;51.634;5.566;2022-07-15T16:44:18;25.20;49.30
58153;DHT22;43967;51.634;5.566;2022-07-15T16:49:19;25.20;49.50
58153;DHT22;43967;51.634;5.566;2022-07-15T16:54:20;25.20;49.40
58153;DHT22;43967;51.634;5.566;2022-07-15T16:59:21;25.20;49.30
58153;DHT22;43967;51.634;5.566;2022-07-15T17:04:23;25.20;49.40
58153;DHT22;43967;51.634;5.566;2022-07-15T17:09:24;25.20;49.60
58153;DHT22;43967;51.634;5.566;2022-07-15T17:14:25;25.20;49.70
58153;DHT22;43967;51.634;5.566;2022-07-15T17:19:26;25.30;49.70
58153;DHT22;43967;51.634;5.566;2022-07-15T17:24:27;25.30;49.70
58153;DHT22;43967;51.634;5.566;2022-07-15T17:29:29;25.30;49.80
58153;DHT22;43967;51.634;5.566;2022-07-15T17:34:30;25.30;49.80
58153;DHT22;43967;51.634;5.566;2022-07-15T17:39:31;25.30;49.70
58153;DHT22;43967;51.634;5.566;2022-07-15T17:44:32;25.30;49.60
58153;DHT22;43967;51.634;5.566;2022-07-15T17:49:33;25.30;49.60
58153;DHT22;43967;51.634;5.566;2022-07-15T17:54:34;25.30;49.70
58153;DHT22;43967;51.634;5.566;2022-07-15T17:59:35;25.20;49.70
58153;DHT22;43967;51.634;5.566;2022-07-15T18:04:36;25.20;49.70
58153;DHT22;43967;51.634;5.566;2022-07-15T18:09:37;25.20;49.70
58153;DHT22;43967;51.634;5.566;2022-07-15T18:14:38;25.20;49.80
58153;DHT22;43967;51.634;5.566;2022-07-15T18:19:39;25.20;49.80
58153;DHT22;43967;51.634;5.566;2022-07-15T18:24:40;25.20;49.90
58153;DHT22;43967;51.634;5.566;2022-07-15T18:29:42;25.20;49.90
58153;DHT22;43967;51.634;5.566;2022-07-15T18:34:43;25.20;50.00
58153;DHT22;43967;51.634;5.566;2022-07-15T18:39:44;25.20;50.00
58153;DHT22;43967;51.634;5.566;2022-07-15T18:44:45;25.20;50.10
58153;DHT22;43967;51.634;5.566;2022-07-15T18:49:46;25.10;50.00
58153;DHT22;43967;51.634;5.566;2022-07-15T18:54:47;25.10;50.00
58153;DHT22;43967;51.634;5.566;2022-07-15T18:59:48;25.10;50.00
58153;DHT22;43967;51.634;5.566;2022-07-15T19:04:49;25.10;50.00
58153;DHT22;43967;51.634;5.566;2022-07-15T19:09:50;25.10;50.00
58153;DHT22;43967;51.634;5.566;2022-07-15T19:14:51;25.10;50.00
58153;DHT22;43967;51.634;5.566;2022-07-15T19:19:52;25.10;50.10
58153;DHT22;43967;51.634;5.566;2022-07-15T19:24:53;25.10;50.20
58153;DHT22;43967;51.634;5.566;2022-07-15T19:29:55;25.10;50.30
58153;DHT22;43967;51.634;5.566;2022-07-15T19:34:56;25.10;50.30
58153;DHT22;43967;51.634;5.566;2022-07-15T19:39:57;25.00;50.30
58153;DHT22;43967;51.634;5.566;2022-07-15T19:44:58;25.10;50.30
58153;DHT22;43967;51.634;5.566;2022-07-15T19:49:59;25.00;50.30
58153;DHT22;43967;51.634;5.566;2022-07-15T19:55:01;25.00;50.40
58153;DHT22;43967;51.634;5.566;2022-07-15T20:00:04;25.00;50.40
58153;DHT22;43967;51.634;5.566;2022-07-15T20:05:05;25.00;50.40
58153;DHT22;43967;51.634;5.566;2022-07-15T20:10:07;25.00;50.40
58153;DHT22;43967;51.634;5.566;2022-07-15T20:15:09;25.00;50.40
58153;DHT22;43967;51.634;5.566;2022-07-15T20:20:11;24.90;50.40
58153;DHT22;43967;51.634;5.566;2022-07-15T20:25:12;25.00;50.50
58153;DHT22;43967;51.634;5.566;2022-07-15T20:30:15;25.00;50.50
58153;DHT22;43967;51.634;5.566;2022-07-15T20:35:17;25.00;50.50
58153;DHT22;43967;51.634;5.566;2022-07-15T20:40:18;24.90;50.50
58153;DHT22;43967;51.634;5.566;2022-07-15T20:45:20;24.90;50.50
58153;DHT22;43967;51.634;5.566;2022-07-15T20:50:21;24.90;50.50
58153;DHT22;43967;51.634;5.566;2022-07-15T20:55:22;24.90;50.60
58153;DHT22;43967;51.634;5.566;2022-07-15T21:00:23;24.90;50.60
58153;DHT22;43967;51.634;5.566;2022-07-15T21:05:24;24.90;50.60
58153;DHT22;43967;51.634;5.566;2022-07-15T21:10:25;24.90;51.40
58153;DHT22;43967;51.634;5.566;2022-07-15T21:15:26;24.90;50.70
58153;DHT22;43967;51.634;5.566;2022-07-15T21:20:27;24.90;50.70
58153;DHT22;43967;51.634;5.566;2022-07-15T21:25:29;24.90;50.70
58153;DHT22;43967;51.634;5.566;2022-07-15T21:30:30;24.90;50.80
58153;DHT22;43967;51.634;5.566;2022-07-15T21:35:31;24.90;51.40
58153;DHT22;43967;51.634;5.566;2022-07-15T21:40:32;24.90;50.80
58153;DHT22;43967;51.634;5.566;2022-07-15T21:45:33;24.90;50.80
58153;DHT22;43967;51.634;5.566;2022-07-15T21:50:34;24.90;50.80
58153;DHT22;43967;51.634;5.566;2022-07-15T21:55:35;24.90;51.60
58153;DHT22;43967;51.634;5.566;2022-07-15T22:00:37;24.80;50.90
58153;DHT22;43967;51.634;5.566;2022-07-15T22:05:38;24.80;51.10
58153;DHT22;43967;51.634;5.566;2022-07-15T22:10:40;24.80;51.10
58153;DHT22;43967;51.634;5.566;2022-07-15T22:15:41;24.80;51.20
58153;DHT22;43967;51.634;5.566;2022-07-15T22:20:43;24.80;51.20
58153;DHT22;43967;51.634;5.566;2022-07-15T22:25:44;24.80;51.20
58153;DHT22;43967;51.634;5.566;2022-07-15T22:30:45;24.80;51.10
58153;DHT22;43967;51.634;5.566;2022-07-15T22:35:47;24.80;51.10
58153;DHT22;43967;51.634;5.566;2022-07-15T22:40:48;24.80;51.00
58153;DHT22;43967;51.634;5.566;2022-07-15T22:45:49;24.80;51.10
58153;DHT22;43967;51.634;5.566;2022-07-15T22:50:51;24.80;51.10
58153;DHT22;43967;51.634;5.566;2022-07-15T22:55:52;24.80;51.20
58153;DHT22;43967;51.634;5.566;2022-07-15T23:00:53;24.80;51.30
58153;DHT22;43967;51.634;5.566;2022-07-15T23:05:54;24.80;51.20
58153;DHT22;43967;51.634;5.566;2022-07-15T23:10:55;24.80;51.30
58153;DHT22;43967;51.634;5.566;2022-07-15T23:15:56;24.80;51.30
58153;DHT22;43967;51.634;5.566;2022-07-15T23:20:57;24.80;51.40
58153;DHT22;43967;51.634;5.566;2022-07-15T23:25:58;24.80;51.50
58153;DHT22;43967;51.634;5.566;2022-07-15T23:31:00;24.80;51.50
58153;DHT22;43967;51.634;5.566;2022-07-15T23:36:01;24.80;51.50
58153;DHT22;43967;51.634;5.566;2022-07-15T23:41:02;24.70;52.20
58153;DHT22;43967;51.634;5.566;2022-07-15T23:46:03;24.70;51.60
58153;DHT22;43967;51.634;5.566;2022-07-15T23:51:04;24.70;51.50
58153;DHT22;43967;51.634;5.566;2022-07-15T23:56:05;24.70;51.60
